sensor_id;sensor_type;location;lat;lon;timestamp;pressure;altitude;pressure_sealevel;temperature;humidity
55685;BME280;41883;49.544;8.646;2023-04-28T00:02:00;100332.88;;;12.90;nan
55685;BME280;41883;49.544;8.646;2023-04-28T00:04:25;100329.84;;;12.93;nan
55685;BME280;41883;49.544;8.646;2023-04-28T00:06:50;100331.03;;;12.99;nan
55685;BME280;41883;49.544;8.646;2023-04-28T00:09:15;100331.03;;;12.99;nan
55685;BME280;41883;49.544;8.646;2023-04-28T00:11:43;100333.56;;;12.76;nan
55685;BME280;41883;49.544;8.646;2023-04-28T00:14:08;100326.00;;;12.48;nan
55685;BME280;41883;49.544;8.646;2023-04-28T00:16:33;100329.53;;;12.24;nan
55685;BME280;41883;49.544;8.646;2023-04-28T00:18:58;100331.03;;;12.10;nan
55685;BME280;41883;49.544;8.646;2023-04-28T00:21:23;100333.72;;;11.94;nan
55685;BME280;41883;49.544;8.646;2023-04-28T00:23:49;100334.16;;;11.81;nan
55685;BME280;41883;49.544;8.646;2023-04-28T00:26:14;100327.69;;;11.76;nan
55685;BME280;41883;49.544;8.646;2023-04-28T00:28:41;100317.25;;;11.74;nan
55685;BME280;41883;49.544;8.646;2023-04-28T00:31:10;100308.97;;;11.69;nan
55685;BME280;41883;49.544;8.646;2023-04-28T00:33:39;100303.34;;;11.64;nan
55685;BME280;41883;49.544;8.646;2023-04-28T00:36:04;100301.88;;;11.61;nan
55685;BME280;41883;49.544;8.646;2023-04-28T00:38:30;100294.88;;;11.60;nan
55685;BME280;41883;49.544;8.646;2023-04-28T00:40:55;100283.13;;;11.63;nan
55685;BME280;41883;49.544;8.646;2023-04-28T00:43:20;100276.03;;;11.55;nan
55685;BME280;41883;49.544;8.646;2023-04-28T00:45:45;100269.91;;;11.46;nan
55685;BME280;41883;49.544;8.646;2023-04-28T00:48:10;100260.44;;;11.44;nan
55685;BME280;41883;49.544;8.646;2023-04-28T00:50:37;100257.81;;;11.36;nan
55685;BME280;41883;49.544;8.646;2023-04-28T00:53:02;100261.13;;;11.46;nan
55685;BME280;41883;49.544;8.646;2023-04-28T00:55:28;100253.16;;;11.46;nan
55685;BME280;41883;49.544;8.646;2023-04-28T00:57:55;100252.38;;;11.54;nan
55685;BME280;41883;49.544;8.646;2023-04-28T01:00:21;100256.00;;;11.69;nan
55685;BME280;41883;49.544;8.646;2023-04-28T01:02:46;100243.25;;;11.64;nan
55685;BME280;41883;49.544;8.646;2023-04-28T01:05:11;100241.09;;;11.60;nan
55685;BME280;41883;49.544;8.646;2023-04-28T01:07:37;100237.97;;;11.56;nan
55685;BME280;41883;49.544;8.646;2023-04-28T01:10:03;100224.22;;;11.69;nan
55685;BME280;41883;49.544;8.646;2023-04-28T01:12:28;100219.06;;;11.84;nan
55685;BME280;41883;49.544;8.646;2023-04-28T01:14:54;100211.31;;;11.90;nan
55685;BME280;41883;49.544;8.646;2023-04-28T01:17:20;100216.47;;;11.92;nan
55685;BME280;41883;49.544;8.646;2023-04-28T01:19:45;100212.13;;;11.91;nan
55685;BME280;41883;49.544;8.646;2023-04-28T01:22:10;100202.19;;;12.01;nan
55685;BME280;41883;49.544;8.646;2023-04-28T01:24:39;100198.50;;;12.10;nan
55685;BME280;41883;49.544;8.646;2023-04-28T01:27:04;100197.03;;;12.16;nan
55685;BME280;41883;49.544;8.646;2023-04-28T01:29:30;100202.63;;;12.21;nan
55685;BME280;41883;49.544;8.646;2023-04-28T01:31:55;100199.81;;;12.23;nan
55685;BME280;41883;49.544;8.646;2023-04-28T01:34:20;100199.16;;;12.21;nan
55685;BME280;41883;49.544;8.646;2023-04-28T01:36:45;100194.19;;;12.18;nan
55685;BME280;41883;49.544;8.646;2023-04-28T01:39:10;100203.16;;;12.17;nan
55685;BME280;41883;49.544;8.646;2023-04-28T01:41:35;100198.00;;;12.15;nan
55685;BME280;41883;49.544;8.646;2023-04-28T01:44:01;100188.72;;;12.19;nan
55685;BME280;41883;49.544;8.646;2023-04-28T01:46:26;100197.59;;;12.35;nan
55685;BME280;41883;49.544;8.646;2023-04-28T01:48:51;100202.38;;;12.47;nan
55685;BME280;41883;49.544;8.646;2023-04-28T01:51:16;100199.38;;;12.50;nan
55685;BME280;41883;49.544;8.646;2023-04-28T01:53:41;100201.41;;;12.40;nan
55685;BME280;41883;49.544;8.646;2023-04-28T01:56:07;100206.25;;;12.28;nan
55685;BME280;41883;49.544;8.646;2023-04-28T01:58:32;100206.47;;;12.10;nan
55685;BME280;41883;49.544;8.646;2023-04-28T02:00:57;100216.94;;;11.96;nan
55685;BME280;41883;49.544;8.646;2023-04-28T02:03:22;100217.91;;;11.86;nan
55685;BME280;41883;49.544;8.646;2023-04-28T02:05:47;100223.69;;;11.82;nan
55685;BME280;41883;49.544;8.646;2023-04-28T02:08:13;100218.75;;;11.79;nan
55685;BME280;41883;49.544;8.646;2023-04-28T02:10:38;100208.16;;;11.79;nan
55685;BME280;41883;49.544;8.646;2023-04-28T02:13:03;100193.94;;;11.80;nan
55685;BME280;41883;49.544;8.646;2023-04-28T02:15:28;100193.41;;;11.76;nan
55685;BME280;41883;49.544;8.646;2023-04-28T02:17:54;100201.19;;;11.69;nan
55685;BME280;41883;49.544;8.646;2023-04-28T02:20:19;100193.94;;;11.63;nan
55685;BME280;41883;49.544;8.646;2023-04-28T02:22:45;100202.53;;;11.57;nan
55685;BME280;41883;49.544;8.646;2023-04-28T02:25:10;100196.09;;;11.52;nan
55685;BME280;41883;49.544;8.646;2023-04-28T02:27:35;100210.50;;;11.49;nan
55685;BME280;41883;49.544;8.646;2023-04-28T02:30:04;100214.13;;;11.48;nan
55685;BME280;41883;49.544;8.646;2023-04-28T02:32:29;100214.31;;;11.46;nan
55685;BME280;41883;49.544;8.646;2023-04-28T02:34:55;100218.75;;;11.46;nan
55685;BME280;41883;49.544;8.646;2023-04-28T02:37:20;100224.38;;;11.51;nan
55685;BME280;41883;49.544;8.646;2023-04-28T02:39:46;100237.13;;;11.56;nan
55685;BME280;41883;49.544;8.646;2023-04-28T02:42:11;100240.09;;;11.53;nan
55685;BME280;41883;49.544;8.646;2023-04-28T02:44:36;100240.44;;;11.50;nan
55685;BME280;41883;49.544;8.646;2023-04-28T02:47:02;100236.97;;;11.49;nan
55685;BME280;41883;49.544;8.646;2023-04-28T02:49:27;100238.78;;;11.48;nan
55685;BME280;41883;49.544;8.646;2023-04-28T02:51:52;100232.00;;;11.46;nan
55685;BME280;41883;49.544;8.646;2023-04-28T02:54:23;100225.38;;;11.42;nan
55685;BME280;41883;49.544;8.646;2023-04-28T02:56:55;100223.91;;;11.39;nan
55685;BME280;41883;49.544;8.646;2023-04-28T02:59:21;100225.53;;;11.40;nan
55685;BME280;41883;49.544;8.646;2023-04-28T03:01:46;100221.56;;;11.36;nan
55685;BME280;41883;49.544;8.646;2023-04-28T03:04:12;100222.72;;;11.34;nan
55685;BME280;41883;49.544;8.646;2023-04-28T03:06:37;100222.72;;;11.34;nan
55685;BME280;41883;49.544;8.646;2023-04-28T03:09:03;100222.72;;;11.34;nan
55685;BME280;41883;49.544;8.646;2023-04-28T03:11:28;100205.69;;;11.36;nan
55685;BME280;41883;49.544;8.646;2023-04-28T03:13:53;100207.34;;;11.37;nan
55685;BME280;41883;49.544;8.646;2023-04-28T03:16:18;100197.91;;;11.35;nan
55685;BME280;41883;49.544;8.646;2023-04-28T03:18:43;100198.06;;;11.33;nan
55685;BME280;41883;49.544;8.646;2023-04-28T03:21:08;100194.59;;;11.33;nan
55685;BME280;41883;49.544;8.646;2023-04-28T03:23:34;100196.59;;;11.31;nan
55685;BME280;41883;49.544;8.646;2023-04-28T03:25:59;100184.50;;;11.28;nan
55685;BME280;41883;49.544;8.646;2023-04-28T03:28:24;100160.69;;;11.28;nan
55685;BME280;41883;49.544;8.646;2023-04-28T03:30:50;100149.44;;;11.26;nan
55685;BME280;41883;49.544;8.646;2023-04-28T03:33:15;100148.28;;;11.20;nan
55685;BME280;41883;49.544;8.646;2023-04-28T03:35:40;100146.13;;;11.16;nan
55685;BME280;41883;49.544;8.646;2023-04-28T03:38:05;100142.81;;;11.14;nan
55685;BME280;41883;49.544;8.646;2023-04-28T03:40:31;100144.94;;;11.10;nan
55685;BME280;41883;49.544;8.646;2023-04-28T03:42:56;100146.63;;;11.11;nan
55685;BME280;41883;49.544;8.646;2023-04-28T03:45:21;100144.63;;;11.05;nan
55685;BME280;41883;49.544;8.646;2023-04-28T03:47:46;100145.28;;;10.99;nan
55685;BME280;41883;49.544;8.646;2023-04-28T03:50:11;100141.13;;;10.96;nan
55685;BME280;41883;49.544;8.646;2023-04-28T03:52:37;100140.97;;;10.98;nan
55685;BME280;41883;49.544;8.646;2023-04-28T03:55:02;100136.03;;;11.03;nan
55685;BME280;41883;49.544;8.646;2023-04-28T03:57:27;100138.69;;;11.11;nan
55685;BME280;41883;49.544;8.646;2023-04-28T03:59:53;100133.38;;;11.19;nan
55685;BME280;41883;49.544;8.646;2023-04-28T04:02:18;100135.53;;;11.24;nan
55685;BME280;41883;49.544;8.646;2023-04-28T04:04:43;100126.28;;;11.28;nan
55685;BME280;41883;49.544;8.646;2023-04-28T04:07:09;100121.16;;;11.35;nan
55685;BME280;41883;49.544;8.646;2023-04-28T04:09:34;100130.59;;;11.37;nan
55685;BME280;41883;49.544;8.646;2023-04-28T04:11:59;100133.53;;;11.42;nan
55685;BME280;41883;49.544;8.646;2023-04-28T04:14:25;100138.34;;;11.47;nan
55685;BME280;41883;49.544;8.646;2023-04-28T04:16:50;100129.06;;;11.51;nan
55685;BME280;41883;49.544;8.646;2023-04-28T04:19:15;100139.66;;;11.59;nan
55685;BME280;41883;49.544;8.646;2023-04-28T04:21:42;100139.31;;;11.62;nan
55685;BME280;41883;49.544;8.646;2023-04-28T04:24:07;100132.84;;;11.65;nan
55685;BME280;41883;49.544;8.646;2023-04-28T04:26:32;100141.44;;;11.67;nan
55685;BME280;41883;49.544;8.646;2023-04-28T04:28:57;100133.50;;;11.67;nan
55685;BME280;41883;49.544;8.646;2023-04-28T04:31:22;100142.63;;;11.64;nan
55685;BME280;41883;49.544;8.646;2023-04-28T04:33:48;100142.63;;;11.64;nan
55685;BME280;41883;49.544;8.646;2023-04-28T04:36:13;100147.09;;;11.64;nan
55685;BME280;41883;49.544;8.646;2023-04-28T04:38:38;100149.56;;;11.65;nan
55685;BME280;41883;49.544;8.646;2023-04-28T04:41:03;100146.75;;;11.67;nan
55685;BME280;41883;49.544;8.646;2023-04-28T04:43:29;100143.94;;;11.68;nan
55685;BME280;41883;49.544;8.646;2023-04-28T04:45:54;100162.28;;;11.70;nan
55685;BME280;41883;49.544;8.646;2023-04-28T04:48:19;100152.38;;;11.72;nan
55685;BME280;41883;49.544;8.646;2023-04-28T04:50:45;100146.91;;;11.74;nan
55685;BME280;41883;49.544;8.646;2023-04-28T04:53:10;100148.56;;;11.75;nan
55685;BME280;41883;49.544;8.646;2023-04-28T04:55:35;100146.56;;;11.77;nan
55685;BME280;41883;49.544;8.646;2023-04-28T04:58:01;100152.69;;;11.77;nan
55685;BME280;41883;49.544;8.646;2023-04-28T05:00:26;100144.91;;;11.76;nan
55685;BME280;41883;49.544;8.646;2023-04-28T05:02:51;100138.97;;;11.74;nan
55685;BME280;41883;49.544;8.646;2023-04-28T05:05:16;100132.34;;;11.69;nan
55685;BME280;41883;49.544;8.646;2023-04-28T05:07:42;100129.22;;;11.66;nan
55685;BME280;41883;49.544;8.646;2023-04-28T05:10:07;100124.22;;;11.63;nan
55685;BME280;41883;49.544;8.646;2023-04-28T05:12:32;100127.06;;;11.61;nan
55685;BME280;41883;49.544;8.646;2023-04-28T05:14:58;100120.41;;;11.65;nan
55685;BME280;41883;49.544;8.646;2023-04-28T05:17:23;100116.63;;;11.68;nan
55685;BME280;41883;49.544;8.646;2023-04-28T05:19:49;100124.22;;;11.71;nan
55685;BME280;41883;49.544;8.646;2023-04-28T05:22:15;100122.06;;;11.75;nan
55685;BME280;41883;49.544;8.646;2023-04-28T05:24:40;100129.69;;;11.78;nan
55685;BME280;41883;49.544;8.646;2023-04-28T05:27:05;100133.00;;;11.80;nan
55685;BME280;41883;49.544;8.646;2023-04-28T05:29:30;100127.03;;;11.78;nan
55685;BME280;41883;49.544;8.646;2023-04-28T05:31:56;100125.22;;;11.78;nan
55685;BME280;41883;49.544;8.646;2023-04-28T05:34:21;100124.72;;;11.83;nan
55685;BME280;41883;49.544;8.646;2023-04-28T05:36:46;100128.84;;;11.85;nan
55685;BME280;41883;49.544;8.646;2023-04-28T05:39:11;100130.34;;;11.88;nan
55685;BME280;41883;49.544;8.646;2023-04-28T05:41:36;100135.28;;;11.91;nan
55685;BME280;41883;49.544;8.646;2023-04-28T05:44:02;100136.13;;;12.00;nan
55685;BME280;41883;49.544;8.646;2023-04-28T05:46:27;100135.09;;;12.01;nan
55685;BME280;41883;49.544;8.646;2023-04-28T05:48:52;100127.00;;;12.02;nan
55685;BME280;41883;49.544;8.646;2023-04-28T05:51:18;100129.28;;;12.05;nan
55685;BME280;41883;49.544;8.646;2023-04-28T05:53:43;100132.75;;;12.06;nan
55685;BME280;41883;49.544;8.646;2023-04-28T05:56:12;100128.97;;;12.08;nan
55685;BME280;41883;49.544;8.646;2023-04-28T05:58:37;100125.97;;;12.11;nan
55685;BME280;41883;49.544;8.646;2023-04-28T06:01:03;100132.25;;;12.10;nan
55685;BME280;41883;49.544;8.646;2023-04-28T06:03:28;100131.28;;;12.11;nan
55685;BME280;41883;49.544;8.646;2023-04-28T06:05:54;100140.19;;;12.10;nan
55685;BME280;41883;49.544;8.646;2023-04-28T06:08:20;100147.53;;;12.08;nan
55685;BME280;41883;49.544;8.646;2023-04-28T06:10:45;100155.13;;;12.11;nan
55685;BME280;41883;49.544;8.646;2023-04-28T06:13:10;100163.06;;;12.11;nan
55685;BME280;41883;49.544;8.646;2023-04-28T06:15:35;100164.41;;;12.07;nan
55685;BME280;41883;49.544;8.646;2023-04-28T06:18:01;100161.75;;;12.07;nan
55685;BME280;41883;49.544;8.646;2023-04-28T06:20:26;100169.41;;;12.02;nan
55685;BME280;41883;49.544;8.646;2023-04-28T06:22:51;100177.69;;;11.99;nan
55685;BME280;41883;49.544;8.646;2023-04-28T06:25:16;100179.69;;;11.97;nan
55685;BME280;41883;49.544;8.646;2023-04-28T06:27:42;100175.50;;;11.86;nan
55685;BME280;41883;49.544;8.646;2023-04-28T06:30:07;100167.09;;;11.83;nan
55685;BME280;41883;49.544;8.646;2023-04-28T06:32:32;100165.63;;;11.80;nan
55685;BME280;41883;49.544;8.646;2023-04-28T06:34:57;100160.47;;;11.79;nan
55685;BME280;41883;49.544;8.646;2023-04-28T06:37:23;100154.34;;;11.78;nan
55685;BME280;41883;49.544;8.646;2023-04-28T06:39:48;100144.56;;;11.79;nan
55685;BME280;41883;49.544;8.646;2023-04-28T06:42:13;100145.41;;;11.79;nan
55685;BME280;41883;49.544;8.646;2023-04-28T06:44:42;100155.84;;;11.81;nan
55685;BME280;41883;49.544;8.646;2023-04-28T06:47:07;100156.00;;;11.79;nan
55685;BME280;41883;49.544;8.646;2023-04-28T06:49:32;100153.53;;;11.78;nan
55685;BME280;41883;49.544;8.646;2023-04-28T06:51:57;100150.03;;;11.77;nan
55685;BME280;41883;49.544;8.646;2023-04-28T06:54:23;100160.81;;;11.76;nan
55685;BME280;41883;49.544;8.646;2023-04-28T06:56:48;100141.25;;;11.77;nan
55685;BME280;41883;49.544;8.646;2023-04-28T06:59:13;100141.44;;;11.75;nan
55685;BME280;41883;49.544;8.646;2023-04-28T07:01:38;100157.16;;;11.77;nan
55685;BME280;41883;49.544;8.646;2023-04-28T07:04:04;100138.81;;;11.75;nan
55685;BME280;41883;49.544;8.646;2023-04-28T07:06:29;100147.72;;;11.74;nan
55685;BME280;41883;49.544;8.646;2023-04-28T07:08:55;100153.53;;;11.78;nan
55685;BME280;41883;49.544;8.646;2023-04-28T07:11:21;100152.69;;;11.77;nan
55685;BME280;41883;49.544;8.646;2023-04-28T07:13:47;100153.19;;;11.81;nan
55685;BME280;41883;49.544;8.646;2023-04-28T07:16:14;100147.56;;;11.76;nan
55685;BME280;41883;49.544;8.646;2023-04-28T07:18:39;100142.94;;;11.78;nan
55685;BME280;41883;49.544;8.646;2023-04-28T07:21:05;100144.56;;;11.79;nan
55685;BME280;41883;49.544;8.646;2023-04-28T07:23:30;100145.91;;;11.83;nan
55685;BME280;41883;49.544;8.646;2023-04-28T07:25:56;100145.72;;;11.84;nan
55685;BME280;41883;49.544;8.646;2023-04-28T07:28:21;100145.56;;;11.86;nan
55685;BME280;41883;49.544;8.646;2023-04-28T07:30:46;100152.56;;;11.87;nan
55685;BME280;41883;49.544;8.646;2023-04-28T07:33:11;100147.38;;;11.94;nan
55685;BME280;41883;49.544;8.646;2023-04-28T07:35:37;100139.88;;;12.05;nan
55685;BME280;41883;49.544;8.646;2023-04-28T07:38:02;100140.38;;;12.09;nan
55685;BME280;41883;49.544;8.646;2023-04-28T07:40:27;100143.69;;;12.11;nan
55685;BME280;41883;49.544;8.646;2023-04-28T07:42:52;100147.53;;;12.08;nan
55685;BME280;41883;49.544;8.646;2023-04-28T07:45:18;100141.56;;;12.06;nan
55685;BME280;41883;49.544;8.646;2023-04-28T07:47:43;100127.66;;;12.04;nan
55685;BME280;41883;49.544;8.646;2023-04-28T07:50:09;100120.16;;;12.08;nan
55685;BME280;41883;49.544;8.646;2023-04-28T07:52:35;100119.84;;;12.11;nan
55685;BME280;41883;49.544;8.646;2023-04-28T07:55:01;100131.75;;;12.15;nan
55685;BME280;41883;49.544;8.646;2023-04-28T07:57:27;100131.22;;;12.20;nan
55685;BME280;41883;49.544;8.646;2023-04-28T07:59:53;100129.22;;;12.30;nan
55685;BME280;41883;49.544;8.646;2023-04-28T08:02:18;100124.31;;;12.42;nan
55685;BME280;41883;49.544;8.646;2023-04-28T08:04:44;100129.22;;;12.61;nan
55685;BME280;41883;49.544;8.646;2023-04-28T08:07:09;100124.88;;;12.68;nan
55685;BME280;41883;49.544;8.646;2023-04-28T08:09:36;100119.66;;;12.75;nan
55685;BME280;41883;49.544;8.646;2023-04-28T08:12:01;100121.34;;;12.68;nan
55685;BME280;41883;49.544;8.646;2023-04-28T08:14:26;100128.38;;;12.61;nan
55685;BME280;41883;49.544;8.646;2023-04-28T08:16:52;100127.75;;;12.59;nan
55685;BME280;41883;49.544;8.646;2023-04-28T08:19:17;100129.00;;;12.71;nan
55685;BME280;41883;49.544;8.646;2023-04-28T08:21:42;100132.47;;;12.71;nan
55685;BME280;41883;49.544;8.646;2023-04-28T08:24:08;100139.25;;;12.74;nan
55685;BME280;41883;49.544;8.646;2023-04-28T08:26:35;100141.13;;;12.88;nan
55685;BME280;41883;49.544;8.646;2023-04-28T08:29:00;100135.44;;;13.00;nan
55685;BME280;41883;49.544;8.646;2023-04-28T08:31:25;100123.69;;;13.17;nan
55685;BME280;41883;49.544;8.646;2023-04-28T08:33:51;100117.28;;;13.26;nan
55685;BME280;41883;49.544;8.646;2023-04-28T08:36:16;100131.44;;;13.42;nan
55685;BME280;41883;49.544;8.646;2023-04-28T08:38:43;100131.41;;;13.50;nan
55685;BME280;41883;49.544;8.646;2023-04-28T08:41:09;100148.63;;;13.54;nan
55685;BME280;41883;49.544;8.646;2023-04-28T08:43:36;100147.13;;;13.51;nan
55685;BME280;41883;49.544;8.646;2023-04-28T08:46:05;100141.81;;;13.51;nan
55685;BME280;41883;49.544;8.646;2023-04-28T08:48:31;100142.78;;;13.73;nan
55685;BME280;41883;49.544;8.646;2023-04-28T08:50:57;100149.03;;;13.95;nan
55685;BME280;41883;49.544;8.646;2023-04-28T08:53:26;100143.25;;;14.21;nan
55685;BME280;41883;49.544;8.646;2023-04-28T08:55:53;100139.28;;;14.32;nan
55685;BME280;41883;49.544;8.646;2023-04-28T08:58:19;100138.88;;;14.50;nan
55685;BME280;41883;49.544;8.646;2023-04-28T09:00:44;100143.56;;;14.63;nan
55685;BME280;41883;49.544;8.646;2023-04-28T09:03:10;100147.44;;;14.82;nan
55685;BME280;41883;49.544;8.646;2023-04-28T09:05:36;100139.63;;;14.95;nan
55685;BME280;41883;49.544;8.646;2023-04-28T09:08:01;100151.31;;;14.79;nan
55685;BME280;41883;49.544;8.646;2023-04-28T09:10:26;100142.38;;;14.87;nan
55685;BME280;41883;49.544;8.646;2023-04-28T09:12:52;100136.50;;;14.92;nan
55685;BME280;41883;49.544;8.646;2023-04-28T09:17:50;100155.78;;;15.15;nan
55685;BME280;41883;49.544;8.646;2023-04-28T09:20:19;100150.84;;;15.12;nan
55685;BME280;41883;49.544;8.646;2023-04-28T09:22:45;100154.81;;;15.01;nan
55685;BME280;41883;49.544;8.646;2023-04-28T09:25:10;100154.38;;;14.76;nan
55685;BME280;41883;49.544;8.646;2023-04-28T09:27:35;100163.31;;;14.54;nan
55685;BME280;41883;49.544;8.646;2023-04-28T09:30:02;100161.66;;;14.38;nan
55685;BME280;41883;49.544;8.646;2023-04-28T09:32:28;100156.44;;;14.30;nan
55685;BME280;41883;49.544;8.646;2023-04-28T09:34:54;100150.94;;;14.31;nan
55685;BME280;41883;49.544;8.646;2023-04-28T09:37:26;100154.78;;;14.29;nan
55685;BME280;41883;49.544;8.646;2023-04-28T09:39:54;100150.19;;;14.22;nan
55685;BME280;41883;49.544;8.646;2023-04-28T09:44:57;100157.38;;;14.07;nan
55685;BME280;41883;49.544;8.646;2023-04-28T09:47:23;100156.34;;;14.08;nan
55685;BME280;41883;49.544;8.646;2023-04-28T09:49:53;100153.34;;;14.11;nan
55685;BME280;41883;49.544;8.646;2023-04-28T09:52:19;100161.50;;;14.10;nan
55685;BME280;41883;49.544;8.646;2023-04-28T09:54:44;100164.44;;;14.15;nan
55685;BME280;41883;49.544;8.646;2023-04-28T09:57:10;100162.13;;;14.27;nan
55685;BME280;41883;49.544;8.646;2023-04-28T09:59:35;100163.22;;;14.32;nan
55685;BME280;41883;49.544;8.646;2023-04-28T10:02:01;100163.31;;;14.39;nan
55685;BME280;41883;49.544;8.646;2023-04-28T10:04:28;100166.59;;;14.41;nan
55685;BME280;41883;49.544;8.646;2023-04-28T10:06:57;100169.28;;;14.41;nan
55685;BME280;41883;49.544;8.646;2023-04-28T10:09:23;100173.59;;;14.27;nan
55685;BME280;41883;49.544;8.646;2023-04-28T10:11:50;100164.59;;;14.13;nan
55685;BME280;41883;49.544;8.646;2023-04-28T10:14:16;100156.56;;;14.07;nan
55685;BME280;41883;49.544;8.646;2023-04-28T10:16:41;100155.16;;;14.11;nan
55685;BME280;41883;49.544;8.646;2023-04-28T10:19:14;100157.75;;;14.19;nan
55685;BME280;41883;49.544;8.646;2023-04-28T10:21:40;100162.78;;;14.14;nan
55685;BME280;41883;49.544;8.646;2023-04-28T10:24:09;100152.31;;;14.12;nan
55685;BME280;41883;49.544;8.646;2023-04-28T10:29:25;100163.97;;;14.26;nan
55685;BME280;41883;49.544;8.646;2023-04-28T10:34:35;100161.19;;;14.49;nan
55685;BME280;41883;49.544;8.646;2023-04-28T10:37:00;100164.78;;;14.56;nan
55685;BME280;41883;49.544;8.646;2023-04-28T10:39:26;100164.78;;;14.56;nan
55685;BME280;41883;49.544;8.646;2023-04-28T10:41:52;100160.47;;;14.55;nan
55685;BME280;41883;49.544;8.646;2023-04-28T10:47:04;100155.22;;;14.62;nan
55685;BME280;41883;49.544;8.646;2023-04-28T11:00:32;100146.56;;;14.96;nan
55685;BME280;41883;49.544;8.646;2023-04-28T11:02:58;100149.16;;;14.90;nan
55685;BME280;41883;49.544;8.646;2023-04-28T11:05:23;100146.25;;;14.84;nan
55685;BME280;41883;49.544;8.646;2023-04-28T11:13:28;100137.56;;;14.76;nan
55685;BME280;41883;49.544;8.646;2023-04-28T11:16:04;100133.56;;;14.86;nan
55685;BME280;41883;49.544;8.646;2023-04-28T11:18:49;100136.56;;;14.98;nan
55685;BME280;41883;49.544;8.646;2023-04-28T11:21:16;100126.47;;;14.94;nan
55685;BME280;41883;49.544;8.646;2023-04-28T11:23:41;100131.69;;;15.02;nan
55685;BME280;41883;49.544;8.646;2023-04-28T11:26:07;100134.59;;;15.07;nan
55685;BME280;41883;49.544;8.646;2023-04-28T11:28:32;100135.19;;;15.02;nan
55685;BME280;41883;49.544;8.646;2023-04-28T11:31:11;100136.38;;;15.00;nan
55685;BME280;41883;49.544;8.646;2023-04-28T11:33:37;100132.44;;;14.96;nan
55685;BME280;41883;49.544;8.646;2023-04-28T11:36:03;100129.97;;;14.94;nan
55685;BME280;41883;49.544;8.646;2023-04-28T11:38:28;100135.81;;;14.83;nan
55685;BME280;41883;49.544;8.646;2023-04-28T11:40:56;100142.91;;;14.76;nan
55685;BME280;41883;49.544;8.646;2023-04-28T11:43:31;100133.88;;;14.77;nan
55685;BME280;41883;49.544;8.646;2023-04-28T11:45:56;100136.72;;;14.75;nan
55685;BME280;41883;49.544;8.646;2023-04-28T11:48:21;100137.38;;;14.77;nan
55685;BME280;41883;49.544;8.646;2023-04-28T11:50:47;100144.72;;;14.75;nan
55685;BME280;41883;49.544;8.646;2023-04-28T11:53:12;100148.56;;;14.73;nan
55685;BME280;41883;49.544;8.646;2023-04-28T11:55:37;100141.38;;;14.67;nan
55685;BME280;41883;49.544;8.646;2023-04-28T12:01:11;100130.91;;;14.65;nan
55685;BME280;41883;49.544;8.646;2023-04-28T12:03:51;100127.94;;;14.75;nan
55685;BME280;41883;49.544;8.646;2023-04-28T12:06:46;100126.38;;;14.80;nan
55685;BME280;41883;49.544;8.646;2023-04-28T12:09:22;100130.47;;;14.83;nan
55685;BME280;41883;49.544;8.646;2023-04-28T12:11:53;100133.97;;;14.83;nan
55685;BME280;41883;49.544;8.646;2023-04-28T12:14:21;100136.00;;;14.81;nan
55685;BME280;41883;49.544;8.646;2023-04-28T12:16:46;100135.81;;;14.83;nan
55685;BME280;41883;49.544;8.646;2023-04-28T12:19:13;100140.34;;;14.89;nan
55685;BME280;41883;49.544;8.646;2023-04-28T12:21:40;100133.09;;;14.98;nan
55685;BME280;41883;49.544;8.646;2023-04-28T12:24:20;100152.53;;;14.98;nan
55685;BME280;41883;49.544;8.646;2023-04-28T12:26:46;100138.78;;;14.95;nan
55685;BME280;41883;49.544;8.646;2023-04-28T12:31:56;100117.81;;;14.85;nan
55685;BME280;41883;49.544;8.646;2023-04-28T12:34:21;100110.44;;;14.87;nan
55685;BME280;41883;49.544;8.646;2023-04-28T12:36:46;100124.13;;;14.84;nan
55685;BME280;41883;49.544;8.646;2023-04-28T12:39:12;100116.41;;;14.89;nan
55685;BME280;41883;49.544;8.646;2023-04-28T12:41:38;100122.59;;;14.96;nan
55685;BME280;41883;49.544;8.646;2023-04-28T12:44:24;100144.16;;;15.01;nan
55685;BME280;41883;49.544;8.646;2023-04-28T12:46:57;100130.50;;;15.04;nan
55685;BME280;41883;49.544;8.646;2023-04-28T12:49:43;100121.34;;;15.14;nan
55685;BME280;41883;49.544;8.646;2023-04-28T12:52:14;100139.84;;;15.22;nan
55685;BME280;41883;49.544;8.646;2023-04-28T12:54:41;100152.16;;;15.23;nan
55685;BME280;41883;49.544;8.646;2023-04-28T12:57:11;100154.63;;;15.24;nan
55685;BME280;41883;49.544;8.646;2023-04-28T12:59:38;100142.53;;;15.22;nan
55685;BME280;41883;49.544;8.646;2023-04-28T13:02:04;100137.59;;;15.19;nan
55685;BME280;41883;49.544;8.646;2023-04-28T13:04:29;100139.44;;;15.18;nan
55685;BME280;41883;49.544;8.646;2023-04-28T13:06:55;100139.44;;;15.18;nan
55685;BME280;41883;49.544;8.646;2023-04-28T13:09:23;100143.91;;;15.18;nan
55685;BME280;41883;49.544;8.646;2023-04-28T13:11:48;100136.38;;;15.21;nan
55685;BME280;41883;49.544;8.646;2023-04-28T13:14:16;100130.03;;;15.22;nan
55685;BME280;41883;49.544;8.646;2023-04-28T13:16:47;100127.19;;;15.24;nan
55685;BME280;41883;49.544;8.646;2023-04-28T13:19:15;100137.31;;;15.35;nan
55685;BME280;41883;49.544;8.646;2023-04-28T13:21:41;100131.09;;;15.56;nan
55685;BME280;41883;49.544;8.646;2023-04-28T13:26:50;100113.13;;;15.93;nan
55685;BME280;41883;49.544;8.646;2023-04-28T13:29:18;100122.41;;;16.04;nan
55685;BME280;41883;49.544;8.646;2023-04-28T13:31:44;100116.69;;;16.13;nan
55685;BME280;41883;49.544;8.646;2023-04-28T13:34:10;100102.00;;;16.24;nan
55685;BME280;41883;49.544;8.646;2023-04-28T13:36:39;100111.88;;;16.37;nan
55685;BME280;41883;49.544;8.646;2023-04-28T13:39:05;100099.66;;;16.69;nan
55685;BME280;41883;49.544;8.646;2023-04-28T13:41:30;100104.25;;;16.89;nan
55685;BME280;41883;49.544;8.646;2023-04-28T13:43:55;100098.09;;;17.02;nan